sensor_id;sensor_type;location;lat;lon;timestamp;temperature;humidity
17687;DHT22;8962;52.538;13.266;2023-04-25T00:01:23;9.10;99.90
17687;DHT22;8962;52.538;13.266;2023-04-25T00:03:50;9.10;99.90
17687;DHT22;8962;52.538;13.266;2023-04-25T00:06:17;9.10;99.90
17687;DHT22;8962;52.538;13.266;2023-04-25T00:08:44;9.10;99.90
17687;DHT22;8962;52.538;13.266;2023-04-25T00:11:11;9.10;99.90
17687;DHT22;8962;52.538;13.266;2023-04-25T00:13:38;9.20;99.90
17687;DHT22;8962;52.538;13.266;2023-04-25T00:16:07;9.20;99.90
17687;DHT22;8962;52.538;13.266;2023-04-25T00:18:35;9.20;99.90
17687;DHT22;8962;52.538;13.266;2023-04-25T00:21:02;9.20;99.90
17687;DHT22;8962;52.538;13.266;2023-04-25T00:23:31;9.20;99.90
17687;DHT22;8962;52.538;13.266;2023-04-25T00:26:01;9.30;99.90
17687;DHT22;8962;52.538;13.266;2023-04-25T00:28:29;9.30;99.90
17687;DHT22;8962;52.538;13.266;2023-04-25T00:30:56;9.30;99.90
17687;DHT22;8962;52.538;13.266;2023-04-25T00:33:23;9.30;99.90
17687;DHT22;8962;52.538;13.266;2023-04-25T00:35:52;9.30;99.90
17687;DHT22;8962;52.538;13.266;2023-04-25T00:38:19;9.30;99.90
17687;DHT22;8962;52.538;13.266;2023-04-25T00:40:47;9.20;99.90
17687;DHT22;8962;52.538;13.266;2023-04-25T00:43:14;9.30;99.90
17687;DHT22;8962;52.538;13.266;2023-04-25T00:45:43;9.30;99.90
17687;DHT22;8962;52.538;13.266;2023-04-25T00:48:10;9.30;99.90
17687;DHT22;8962;52.538;13.266;2023-04-25T00:50:39;9.30;99.90
17687;DHT22;8962;52.538;13.266;2023-04-25T00:53:09;9.30;99.90
17687;DHT22;8962;52.538;13.266;2023-04-25T00:55:37;9.30;99.90
17687;DHT22;8962;52.538;13.266;2023-04-25T00:58:04;9.30;99.90
17687;DHT22;8962;52.538;13.266;2023-04-25T01:00:33;9.40;99.90
17687;DHT22;8962;52.538;13.266;2023-04-25T01:03:00;9.30;99.90
17687;DHT22;8962;52.538;13.266;2023-04-25T01:05:28;9.30;99.90
17687;DHT22;8962;52.538;13.266;2023-04-25T01:07:57;9.30;99.90
17687;DHT22;8962;52.538;13.266;2023-04-25T01:10:25;9.30;99.90
17687;DHT22;8962;52.538;13.266;2023-04-25T01:12:52;9.20;99.90
17687;DHT22;8962;52.538;13.266;2023-04-25T01:15:20;9.20;99.90
17687;DHT22;8962;52.538;13.266;2023-04-25T01:17:47;9.20;99.90
17687;DHT22;8962;52.538;13.266;2023-04-25T01:20:17;9.20;99.90
17687;DHT22;8962;52.538;13.266;2023-04-25T01:22:46;9.20;99.90
17687;DHT22;8962;52.538;13.266;2023-04-25T01:25:15;9.20;99.90
17687;DHT22;8962;52.538;13.266;2023-04-25T01:27:44;9.20;99.90
17687;DHT22;8962;52.538;13.266;2023-04-25T01:30:11;9.20;99.90
17687;DHT22;8962;52.538;13.266;2023-04-25T01:32:41;9.10;99.90
17687;DHT22;8962;52.538;13.266;2023-04-25T01:35:11;9.10;99.90
17687;DHT22;8962;52.538;13.266;2023-04-25T01:37:39;9.10;99.90
17687;DHT22;8962;52.538;13.266;2023-04-25T01:40:13;9.10;99.90
17687;DHT22;8962;52.538;13.266;2023-04-25T01:42:42;9.10;99.90
17687;DHT22;8962;52.538;13.266;2023-04-25T01:45:11;9.10;99.90
17687;DHT22;8962;52.538;13.266;2023-04-25T01:47:39;9.10;99.90
17687;DHT22;8962;52.538;13.266;2023-04-25T01:50:09;9.10;99.90
17687;DHT22;8962;52.538;13.266;2023-04-25T01:52:37;9.10;99.90
17687;DHT22;8962;52.538;13.266;2023-04-25T01:55:06;9.10;99.90
17687;DHT22;8962;52.538;13.266;2023-04-25T01:57:38;9.10;99.90
17687;DHT22;8962;52.538;13.266;2023-04-25T02:00:07;9.20;99.90
17687;DHT22;8962;52.538;13.266;2023-04-25T02:02:38;9.10;99.90
17687;DHT22;8962;52.538;13.266;2023-04-25T02:05:16;9.10;99.90
17687;DHT22;8962;52.538;13.266;2023-04-25T02:07:44;9.10;99.90
17687;DHT22;8962;52.538;13.266;2023-04-25T02:10:11;9.10;99.90
17687;DHT22;8962;52.538;13.266;2023-04-25T02:12:54;9.10;99.90
17687;DHT22;8962;52.538;13.266;2023-04-25T02:15:40;9.10;99.90
17687;DHT22;8962;52.538;13.266;2023-04-25T02:18:14;9.10;99.90
17687;DHT22;8962;52.538;13.266;2023-04-25T02:20:43;9.00;99.90
17687;DHT22;8962;52.538;13.266;2023-04-25T02:23:12;9.00;99.90
17687;DHT22;8962;52.538;13.266;2023-04-25T02:25:41;9.10;99.90
17687;DHT22;8962;52.538;13.266;2023-04-25T02:28:09;9.00;99.90
17687;DHT22;8962;52.538;13.266;2023-04-25T02:30:37;9.00;99.90
17687;DHT22;8962;52.538;13.266;2023-04-25T02:33:04;9.00;99.90
17687;DHT22;8962;52.538;13.266;2023-04-25T02:35:32;9.00;99.90
17687;DHT22;8962;52.538;13.266;2023-04-25T02:37:59;9.00;99.90
17687;DHT22;8962;52.538;13.266;2023-04-25T02:40:27;9.00;99.90
17687;DHT22;8962;52.538;13.266;2023-04-25T02:42:57;9.00;99.90
17687;DHT22;8962;52.538;13.266;2023-04-25T02:45:27;9.10;99.90
17687;DHT22;8962;52.538;13.266;2023-04-25T02:47:55;9.10;99.90
17687;DHT22;8962;52.538;13.266;2023-04-25T02:50:27;9.10;99.90
17687;DHT22;8962;52.538;13.266;2023-04-25T02:52:54;9.00;99.90
17687;DHT22;8962;52.538;13.266;2023-04-25T02:55:27;9.00;99.90
17687;DHT22;8962;52.538;13.266;2023-04-25T02:57:54;9.00;99.90
17687;DHT22;8962;52.538;13.266;2023-04-25T03:00:36;9.00;99.90
17687;DHT22;8962;52.538;13.266;2023-04-25T03:03:03;8.90;99.90
17687;DHT22;8962;52.538;13.266;2023-04-25T03:05:30;8.90;99.90
17687;DHT22;8962;52.538;13.266;2023-04-25T03:07:58;8.90;99.90
17687;DHT22;8962;52.538;13.266;2023-04-25T03:10:27;8.90;99.90
17687;DHT22;8962;52.538;13.266;2023-04-25T03:12:58;8.90;99.90
17687;DHT22;8962;52.538;13.266;2023-04-25T03:15:26;8.90;99.90
17687;DHT22;8962;52.538;13.266;2023-04-25T03:17:54;8.80;99.90
17687;DHT22;8962;52.538;13.266;2023-04-25T03:20:23;8.80;99.90
17687;DHT22;8962;52.538;13.266;2023-04-25T03:22:50;8.80;99.90
17687;DHT22;8962;52.538;13.266;2023-04-25T03:25:17;8.80;99.90
17687;DHT22;8962;52.538;13.266;2023-04-25T03:27:45;8.80;99.90
17687;DHT22;8962;52.538;13.266;2023-04-25T03:30:13;8.80;99.90
17687;DHT22;8962;52.538;13.266;2023-04-25T03:32:42;8.90;99.90
17687;DHT22;8962;52.538;13.266;2023-04-25T03:35:11;8.80;99.90
17687;DHT22;8962;52.538;13.266;2023-04-25T03:37:38;8.90;99.90
17687;DHT22;8962;52.538;13.266;2023-04-25T03:40:07;8.90;99.90
17687;DHT22;8962;52.538;13.266;2023-04-25T03:43:05;8.90;99.90
17687;DHT22;8962;52.538;13.266;2023-04-25T03:45:33;8.80;99.90
17687;DHT22;8962;52.538;13.266;2023-04-25T03:48:00;8.90;99.90
17687;DHT22;8962;52.538;13.266;2023-04-25T03:50:30;8.80;99.90
17687;DHT22;8962;52.538;13.266;2023-04-25T03:52:58;8.80;99.90
17687;DHT22;8962;52.538;13.266;2023-04-25T03:55:29;8.80;99.90
17687;DHT22;8962;52.538;13.266;2023-04-25T03:57:57;8.80;99.90
17687;DHT22;8962;52.538;13.266;2023-04-25T04:00:25;8.80;99.90
17687;DHT22;8962;52.538;13.266;2023-04-25T04:02:53;8.80;99.90
17687;DHT22;8962;52.538;13.266;2023-04-25T04:05:20;8.80;99.90
17687;DHT22;8962;52.538;13.266;2023-04-25T04:07:54;8.80;99.90
17687;DHT22;8962;52.538;13.266;2023-04-25T04:10:22;8.80;99.90
17687;DHT22;8962;52.538;13.266;2023-04-25T04:12:50;8.90;99.90
17687;DHT22;8962;52.538;13.266;2023-04-25T04:15:17;8.90;99.90
17687;DHT22;8962;52.538;13.266;2023-04-25T04:17:48;8.90;99.90
17687;DHT22;8962;52.538;13.266;2023-04-25T04:20:17;8.90;99.90
17687;DHT22;8962;52.538;13.266;2023-04-25T04:22:45;9.00;99.90
17687;DHT22;8962;52.538;13.266;2023-04-25T04:25:17;9.00;99.90
17687;DHT22;8962;52.538;13.266;2023-04-25T04:28:07;9.00;99.90
17687;DHT22;8962;52.538;13.266;2023-04-25T04:30:53;9.00;99.90
17687;DHT22;8962;52.538;13.266;2023-04-25T04:33:21;9.10;99.90
17687;DHT22;8962;52.538;13.266;2023-04-25T04:35:55;9.00;99.90
17687;DHT22;8962;52.538;13.266;2023-04-25T04:38:22;9.10;99.90
17687;DHT22;8962;52.538;13.266;2023-04-25T04:40:55;9.00;99.90
17687;DHT22;8962;52.538;13.266;2023-04-25T04:43:34;9.00;99.90
17687;DHT22;8962;52.538;13.266;2023-04-25T04:46:23;9.10;99.90
17687;DHT22;8962;52.538;13.266;2023-04-25T04:49:17;9.10;99.90
17687;DHT22;8962;52.538;13.266;2023-04-25T04:51:54;9.10;99.90
17687;DHT22;8962;52.538;13.266;2023-04-25T04:54:51;9.10;99.90
17687;DHT22;8962;52.538;13.266;2023-04-25T04:57:55;9.10;99.90
17687;DHT22;8962;52.538;13.266;2023-04-25T05:00:41;9.20;99.90
17687;DHT22;8962;52.538;13.266;2023-04-25T05:03:26;9.20;99.90
17687;DHT22;8962;52.538;13.266;2023-04-25T05:06:16;9.20;99.90
17687;DHT22;8962;52.538;13.266;2023-04-25T05:08:52;9.30;99.90
17687;DHT22;8962;52.538;13.266;2023-04-25T05:11:38;9.30;99.90
17687;DHT22;8962;52.538;13.266;2023-04-25T05:14:27;9.30;99.90
17687;DHT22;8962;52.538;13.266;2023-04-25T05:17:09;9.30;99.90
17687;DHT22;8962;52.538;13.266;2023-04-25T05:19:55;9.30;99.90
17687;DHT22;8962;52.538;13.266;2023-04-25T05:22:43;9.30;99.90
17687;DHT22;8962;52.538;13.266;2023-04-25T05:25:19;9.40;99.90
17687;DHT22;8962;52.538;13.266;2023-04-25T05:27:56;9.30;99.90
17687;DHT22;8962;52.538;13.266;2023-04-25T05:30:41;9.30;99.90
17687;DHT22;8962;52.538;13.266;2023-04-25T05:33:20;9.40;99.90
17687;DHT22;8962;52.538;13.266;2023-04-25T05:35:50;9.40;99.90
17687;DHT22;8962;52.538;13.266;2023-04-25T05:38:19;9.40;99.90
17687;DHT22;8962;52.538;13.266;2023-04-25T05:41:21;9.40;99.90
17687;DHT22;8962;52.538;13.266;2023-04-25T05:44:00;9.20;99.90
17687;DHT22;8962;52.538;13.266;2023-04-25T05:46:35;9.20;99.90
17687;DHT22;8962;52.538;13.266;2023-04-25T05:49:30;9.20;99.90
17687;DHT22;8962;52.538;13.266;2023-04-25T05:52:04;9.20;99.90
17687;DHT22;8962;52.538;13.266;2023-04-25T05:54:33;9.20;99.90
17687;DHT22;8962;52.538;13.266;2023-04-25T05:57:01;9.20;99.90
17687;DHT22;8962;52.538;13.266;2023-04-25T05:59:28;9.30;99.90
17687;DHT22;8962;52.538;13.266;2023-04-25T06:01:58;9.30;99.90
17687;DHT22;8962;52.538;13.266;2023-04-25T06:04:27;9.30;99.90
17687;DHT22;8962;52.538;13.266;2023-04-25T06:06:54;9.40;99.90
17687;DHT22;8962;52.538;13.266;2023-04-25T06:09:22;9.50;99.90
17687;DHT22;8962;52.538;13.266;2023-04-25T06:11:53;9.50;99.90
17687;DHT22;8962;52.538;13.266;2023-04-25T06:14:21;9.60;99.90
17687;DHT22;8962;52.538;13.266;2023-04-25T06:16:50;9.70;99.90
17687;DHT22;8962;52.538;13.266;2023-04-25T06:19:19;9.70;99.90
17687;DHT22;8962;52.538;13.266;2023-04-25T06:21:46;9.50;99.90
17687;DHT22;8962;52.538;13.266;2023-04-25T06:24:13;9.50;99.90
17687;DHT22;8962;52.538;13.266;2023-04-25T06:26:41;9.60;99.90
17687;DHT22;8962;52.538;13.266;2023-04-25T06:29:08;9.50;99.90
17687;DHT22;8962;52.538;13.266;2023-04-25T06:31:36;9.60;99.90
17687;DHT22;8962;52.538;13.266;2023-04-25T06:34:04;9.50;99.90
17687;DHT22;8962;52.538;13.266;2023-04-25T06:36:37;9.50;99.90
17687;DHT22;8962;52.538;13.266;2023-04-25T06:39:08;9.50;99.90
17687;DHT22;8962;52.538;13.266;2023-04-25T06:41:35;9.30;99.90
17687;DHT22;8962;52.538;13.266;2023-04-25T06:44:06;9.20;99.90
17687;DHT22;8962;52.538;13.266;2023-04-25T06:46:39;9.20;99.90
17687;DHT22;8962;52.538;13.266;2023-04-25T06:49:06;9.20;99.90
17687;DHT22;8962;52.538;13.266;2023-04-25T06:51:37;9.20;99.90
17687;DHT22;8962;52.538;13.266;2023-04-25T06:54:04;9.10;99.90
17687;DHT22;8962;52.538;13.266;2023-04-25T06:56:46;9.10;99.90
17687;DHT22;8962;52.538;13.266;2023-04-25T06:59:14;9.20;99.90
17687;DHT22;8962;52.538;13.266;2023-04-25T07:01:44;9.10;99.90
17687;DHT22;8962;52.538;13.266;2023-04-25T07:04:16;9.10;99.90
17687;DHT22;8962;52.538;13.266;2023-04-25T07:06:51;9.20;99.90
17687;DHT22;8962;52.538;13.266;2023-04-25T07:09:25;9.10;99.90
17687;DHT22;8962;52.538;13.266;2023-04-25T07:11:54;8.90;99.90
17687;DHT22;8962;52.538;13.266;2023-04-25T07:14:23;9.00;99.90
17687;DHT22;8962;52.538;13.266;2023-04-25T07:16:52;9.10;99.90
17687;DHT22;8962;52.538;13.266;2023-04-25T07:19:21;9.10;99.90
17687;DHT22;8962;52.538;13.266;2023-04-25T07:21:54;9.30;99.90
17687;DHT22;8962;52.538;13.266;2023-04-25T07:24:21;9.30;99.90
17687;DHT22;8962;52.538;13.266;2023-04-25T07:26:49;9.20;99.90
17687;DHT22;8962;52.538;13.266;2023-04-25T07:29:40;9.20;99.90
17687;DHT22;8962;52.538;13.266;2023-04-25T07:32:07;9.50;99.90
17687;DHT22;8962;52.538;13.266;2023-04-25T07:34:38;9.50;99.90
17687;DHT22;8962;52.538;13.266;2023-04-25T07:37:08;9.40;99.90
17687;DHT22;8962;52.538;13.266;2023-04-25T07:39:47;9.40;99.90
17687;DHT22;8962;52.538;13.266;2023-04-25T07:42:15;9.40;99.90
17687;DHT22;8962;52.538;13.266;2023-04-25T07:44:43;9.40;99.90
17687;DHT22;8962;52.538;13.266;2023-04-25T07:47:13;9.50;99.90
17687;DHT22;8962;52.538;13.266;2023-04-25T07:49:44;9.70;99.90
17687;DHT22;8962;52.538;13.266;2023-04-25T07:52:13;9.80;99.90
17687;DHT22;8962;52.538;13.266;2023-04-25T07:54:49;9.60;99.90
17687;DHT22;8962;52.538;13.266;2023-04-25T07:57:21;9.50;99.90
17687;DHT22;8962;52.538;13.266;2023-04-25T07:59:50;9.60;99.90
17687;DHT22;8962;52.538;13.266;2023-04-25T08:02:19;9.80;99.90
17687;DHT22;8962;52.538;13.266;2023-04-25T08:04:46;9.90;99.90
17687;DHT22;8962;52.538;13.266;2023-04-25T08:07:18;10.00;99.90
17687;DHT22;8962;52.538;13.266;2023-04-25T08:09:50;10.20;99.90
17687;DHT22;8962;52.538;13.266;2023-04-25T08:12:24;10.20;99.90
17687;DHT22;8962;52.538;13.266;2023-04-25T08:14:51;10.10;99.90
17687;DHT22;8962;52.538;13.266;2023-04-25T08:17:19;10.20;99.90
17687;DHT22;8962;52.538;13.266;2023-04-25T08:19:46;10.60;99.90
17687;DHT22;8962;52.538;13.266;2023-04-25T08:22:24;10.50;99.90
17687;DHT22;8962;52.538;13.266;2023-04-25T08:24:59;10.40;99.90
17687;DHT22;8962;52.538;13.266;2023-04-25T08:27:27;10.30;99.90
17687;DHT22;8962;52.538;13.266;2023-04-25T08:29:54;10.10;99.90
17687;DHT22;8962;52.538;13.266;2023-04-25T08:32:21;10.20;99.90
17687;DHT22;8962;52.538;13.266;2023-04-25T08:35:12;10.20;99.90
17687;DHT22;8962;52.538;13.266;2023-04-25T08:37:41;10.50;99.90
17687;DHT22;8962;52.538;13.266;2023-04-25T08:40:14;10.50;99.90
17687;DHT22;8962;52.538;13.266;2023-04-25T08:43:02;10.60;99.90
17687;DHT22;8962;52.538;13.266;2023-04-25T08:45:32;10.90;99.90
17687;DHT22;8962;52.538;13.266;2023-04-25T08:48:01;10.90;99.90
17687;DHT22;8962;52.538;13.266;2023-04-25T08:50:29;11.10;99.90
17687;DHT22;8962;52.538;13.266;2023-04-25T08:52:59;11.10;99.90
17687;DHT22;8962;52.538;13.266;2023-04-25T08:55:29;11.10;99.90
17687;DHT22;8962;52.538;13.266;2023-04-25T08:58:01;11.10;99.90
17687;DHT22;8962;52.538;13.266;2023-04-25T09:00:29;11.10;99.90
17687;DHT22;8962;52.538;13.266;2023-04-25T09:02:58;11.20;99.90
17687;DHT22;8962;52.538;13.266;2023-04-25T09:05:30;11.10;99.90
17687;DHT22;8962;52.538;13.266;2023-04-25T09:08:01;11.00;99.90
17687;DHT22;8962;52.538;13.266;2023-04-25T09:10:28;11.10;99.90
17687;DHT22;8962;52.538;13.266;2023-04-25T09:13:04;11.50;99.90
17687;DHT22;8962;52.538;13.266;2023-04-25T09:15:48;11.90;99.90
17687;DHT22;8962;52.538;13.266;2023-04-25T09:18:53;12.00;99.90
17687;DHT22;8962;52.538;13.266;2023-04-25T09:21:22;12.30;99.90
17687;DHT22;8962;52.538;13.266;2023-04-25T09:23:52;12.40;99.90
17687;DHT22;8962;52.538;13.266;2023-04-25T09:26:20;12.00;99.90
17687;DHT22;8962;52.538;13.266;2023-04-25T09:28:49;12.10;99.90
17687;DHT22;8962;52.538;13.266;2023-04-25T09:31:33;11.60;99.90
17687;DHT22;8962;52.538;13.266;2023-04-25T09:34:02;11.50;99.90
17687;DHT22;8962;52.538;13.266;2023-04-25T09:36:37;11.30;99.90
17687;DHT22;8962;52.538;13.266;2023-04-25T09:39:45;11.20;99.90
17687;DHT22;8962;52.538;13.266;2023-04-25T09:42:15;11.20;99.90
17687;DHT22;8962;52.538;13.266;2023-04-25T09:44:44;11.40;99.90
17687;DHT22;8962;52.538;13.266;2023-04-25T09:47:13;11.20;99.90
17687;DHT22;8962;52.538;13.266;2023-04-25T09:49:44;11.20;99.90
17687;DHT22;8962;52.538;13.266;2023-04-25T09:52:15;11.20;99.90
17687;DHT22;8962;52.538;13.266;2023-04-25T09:54:56;11.40;99.90
17687;DHT22;8962;52.538;13.266;2023-04-25T09:57:33;12.00;99.90
17687;DHT22;8962;52.538;13.266;2023-04-25T10:00:01;12.50;99.90
17687;DHT22;8962;52.538;13.266;2023-04-25T10:02:42;12.00;99.90
17687;DHT22;8962;52.538;13.266;2023-04-25T10:05:32;11.70;99.90
17687;DHT22;8962;52.538;13.266;2023-04-25T10:08:03;11.90;99.90
17687;DHT22;8962;52.538;13.266;2023-04-25T10:10:32;12.20;99.90
17687;DHT22;8962;52.538;13.266;2023-04-25T10:13:04;12.30;99.90
17687;DHT22;8962;52.538;13.266;2023-04-25T10:15:35;12.40;99.90
17687;DHT22;8962;52.538;13.266;2023-04-25T10:18:03;12.20;99.90
17687;DHT22;8962;52.538;13.266;2023-04-25T10:20:33;11.90;99.90
17687;DHT22;8962;52.538;13.266;2023-04-25T10:23:12;11.60;99.90
17687;DHT22;8962;52.538;13.266;2023-04-25T10:25:45;11.40;99.90
17687;DHT22;8962;52.538;13.266;2023-04-25T10:28:13;11.50;99.90
17687;DHT22;8962;52.538;13.266;2023-04-25T10:30:58;11.50;99.90
17687;DHT22;8962;52.538;13.266;2023-04-25T10:33:32;11.80;99.90
17687;DHT22;8962;52.538;13.266;2023-04-25T10:36:11;11.80;99.90
17687;DHT22;8962;52.538;13.266;2023-04-25T10:38:42;11.90;99.90
17687;DHT22;8962;52.538;13.266;2023-04-25T10:41:12;11.80;99.90
17687;DHT22;8962;52.538;13.266;2023-04-25T10:43:40;11.50;99.90
17687;DHT22;8962;52.538;13.266;2023-04-25T10:46:16;11.50;99.90
17687;DHT22;8962;52.538;13.266;2023-04-25T10:48:48;11.50;99.90
17687;DHT22;8962;52.538;13.266;2023-04-25T10:51:18;11.70;99.90
17687;DHT22;8962;52.538;13.266;2023-04-25T10:53:52;11.70;99.90
17687;DHT22;8962;52.538;13.266;2023-04-25T10:56:25;11.80;99.90
17687;DHT22;8962;52.538;13.266;2023-04-25T10:59:06;12.00;99.90
17687;DHT22;8962;52.538;13.266;2023-04-25T11:01:38;12.20;99.90
17687;DHT22;8962;52.538;13.266;2023-04-25T11:04:19;11.70;99.90
17687;DHT22;8962;52.538;13.266;2023-04-25T11:07:02;11.30;99.90
17687;DHT22;8962;52.538;13.266;2023-04-25T11:09:31;10.90;99.90
17687;DHT22;8962;52.538;13.266;2023-04-25T11:12:06;10.40;99.90
17687;DHT22;8962;52.538;13.266;2023-04-25T11:14:34;10.10;99.90
17687;DHT22;8962;52.538;13.266;2023-04-25T11:17:03;10.00;99.90
17687;DHT22;8962;52.538;13.266;2023-04-25T11:19:32;10.00;99.90
17687;DHT22;8962;52.538;13.266;2023-04-25T11:22:02;10.10;99.90
17687;DHT22;8962;52.538;13.266;2023-04-25T11:24:30;10.30;99.90
17687;DHT22;8962;52.538;13.266;2023-04-25T11:27:04;10.50;99.90
17687;DHT22;8962;52.538;13.266;2023-04-25T11:29:33;10.80;99.90
17687;DHT22;8962;52.538;13.266;2023-04-25T11:32:01;11.00;99.90
17687;DHT22;8962;52.538;13.266;2023-04-25T11:34:29;11.30;98.90
17687;DHT22;8962;52.538;13.266;2023-04-25T11:36:57;11.30;98.30
17687;DHT22;8962;52.538;13.266;2023-04-25T11:39:25;11.40;98.20
17687;DHT22;8962;52.538;13.266;2023-04-25T11:41:53;11.40;98.60
17687;DHT22;8962;52.538;13.266;2023-04-25T11:44:23;11.40;99.00
17687;DHT22;8962;52.538;13.266;2023-04-25T11:46:50;11.10;99.50
17687;DHT22;8962;52.538;13.266;2023-04-25T11:49:17;11.00;99.90
17687;DHT22;8962;52.538;13.266;2023-04-25T11:51:46;11.10;99.90
17687;DHT22;8962;52.538;13.266;2023-04-25T11:54:14;11.30;99.90
17687;DHT22;8962;52.538;13.266;2023-04-25T11:56:41;11.60;99.90
17687;DHT22;8962;52.538;13.266;2023-04-25T11:59:09;11.50;99.90
17687;DHT22;8962;52.538;13.266;2023-04-25T12:01:39;11.50;99.90
17687;DHT22;8962;52.538;13.266;2023-04-25T12:04:11;11.30;99.90
17687;DHT22;8962;52.538;13.266;2023-04-25T12:06:40;11.10;99.90
17687;DHT22;8962;52.538;13.266;2023-04-25T12:09:10;10.90;99.90
17687;DHT22;8962;52.538;13.266;2023-04-25T12:11:42;10.80;99.80
17687;DHT22;8962;52.538;13.266;2023-04-25T12:14:11;10.70;99.90
17687;DHT22;8962;52.538;13.266;2023-04-25T12:16:45;10.70;99.90
17687;DHT22;8962;52.538;13.266;2023-04-25T12:19:14;10.80;99.60
17687;DHT22;8962;52.538;13.266;2023-04-25T12:21:44;11.20;99.00
17687;DHT22;8962;52.538;13.266;2023-04-25T12:24:13;11.20;98.80
17687;DHT22;8962;52.538;13.266;2023-04-25T12:26:51;11.20;99.30
17687;DHT22;8962;52.538;13.266;2023-04-25T12:29:21;11.50;99.20
17687;DHT22;8962;52.538;13.266;2023-04-25T12:31:51;11.50;98.60
17687;DHT22;8962;52.538;13.266;2023-04-25T12:34:19;11.30;98.60
17687;DHT22;8962;52.538;13.266;2023-04-25T12:36:46;11.10;98.60
17687;DHT22;8962;52.538;13.266;2023-04-25T12:39:17;10.80;99.60
17687;DHT22;8962;52.538;13.266;2023-04-25T12:41:45;10.70;99.60
17687;DHT22;8962;52.538;13.266;2023-04-25T12:44:13;10.80;99.40
17687;DHT22;8962;52.538;13.266;2023-04-25T12:46:41;10.80;99.80
17687;DHT22;8962;52.538;13.266;2023-04-25T12:49:10;10.90;99.20
17687;DHT22;8962;52.538;13.266;2023-04-25T12:51:37;10.80;99.90
17687;DHT22;8962;52.538;13.266;2023-04-25T12:54:05;10.80;99.90
17687;DHT22;8962;52.538;13.266;2023-04-25T12:56:34;11.00;99.90
17687;DHT22;8962;52.538;13.266;2023-04-25T12:59:01;11.40;99.80
17687;DHT22;8962;52.538;13.266;2023-04-25T13:01:28;11.90;98.50
17687;DHT22;8962;52.538;13.266;2023-04-25T13:03:56;12.40;96.20
17687;DHT22;8962;52.538;13.266;2023-04-25T13:06:25;13.50;95.00
17687;DHT22;8962;52.538;13.266;2023-04-25T13:08:52;16.00;87.60
17687;DHT22;8962;52.538;13.266;2023-04-25T13:11:20;17.50;68.90
17687;DHT22;8962;52.538;13.266;2023-04-25T13:13:48;16.70;62.60
17687;DHT22;8962;52.538;13.266;2023-04-25T13:16:16;14.90;64.40
17687;DHT22;8962;52.538;13.266;2023-04-25T13:18:46;13.90;71.70
17687;DHT22;8962;52.538;13.266;2023-04-25T13:21:13;12.80;82.90
17687;DHT22;8962;52.538;13.266;2023-04-25T13:23:43;12.70;88.10
17687;DHT22;8962;52.538;13.266;2023-04-25T13:26:12;12.10;91.80
17687;DHT22;8962;52.538;13.266;2023-04-25T13:28:39;11.60;93.40
17687;DHT22;8962;52.538;13.266;2023-04-25T13:31:09;11.50;95.20
17687;DHT22;8962;52.538;13.266;2023-04-25T13:33:36;11.40;97.00
17687;DHT22;8962;52.538;13.266;2023-04-25T13:36:04;11.40;97.80
17687;DHT22;8962;52.538;13.266;2023-04-25T13:38:31;11.50;97.70
17687;DHT22;8962;52.538;13.266;2023-04-25T13:41:01;11.90;97.30
17687;DHT22;8962;52.538;13.266;2023-04-25T13:43:29;12.10;97.00
17687;DHT22;8962;52.538;13.266;2023-04-25T13:45:56;12.90;95.30
17687;DHT22;8962;52.538;13.266;2023-04-25T13:48:24;13.00;94.50
17687;DHT22;8962;52.538;13.266;2023-04-25T13:50:51;12.60;95.40
17687;DHT22;8962;52.538;13.266;2023-04-25T13:53:21;12.40;96.10
17687;DHT22;8962;52.538;13.266;2023-04-25T13:55:49;11.90;96.50
17687;DHT22;8962;52.538;13.266;2023-04-25T13:58:19;11.80;97.50
17687;DHT22;8962;52.538;13.266;2023-04-25T14:00:46;11.50;97.20
17687;DHT22;8962;52.538;13.266;2023-04-25T14:03:14;11.10;97.90
17687;DHT22;8962;52.538;13.266;2023-04-25T14:05:42;11.00;99.30
17687;DHT22;8962;52.538;13.266;2023-04-25T14:08:11;11.00;99.90
17687;DHT22;8962;52.538;13.266;2023-04-25T14:10:38;10.80;99.90
17687;DHT22;8962;52.538;13.266;2023-04-25T14:13:05;10.60;99.90
17687;DHT22;8962;52.538;13.266;2023-04-25T14:15:34;10.80;99.90
17687;DHT22;8962;52.538;13.266;2023-04-25T14:18:03;10.90;99.90
17687;DHT22;8962;52.538;13.266;2023-04-25T14:20:31;10.70;99.00
17687;DHT22;8962;52.538;13.266;2023-04-25T14:22:58;10.60;99.90
17687;DHT22;8962;52.538;13.266;2023-04-25T14:25:26;10.70;99.90
17687;DHT22;8962;52.538;13.266;2023-04-25T14:27:53;11.00;99.90
17687;DHT22;8962;52.538;13.266;2023-04-25T14:30:21;11.20;99.90
17687;DHT22;8962;52.538;13.266;2023-04-25T14:32:49;11.50;99.90
17687;DHT22;8962;52.538;13.266;2023-04-25T14:35:19;12.00;99.90
17687;DHT22;8962;52.538;13.266;2023-04-25T14:37:47;13.20;97.50
17687;DHT22;8962;52.538;13.266;2023-04-25T14:40:14;13.30;96.80
17687;DHT22;8962;52.538;13.266;2023-04-25T14:42:42;12.40;98.30
17687;DHT22;8962;52.538;13.266;2023-04-25T14:45:10;11.70;99.80
17687;DHT22;8962;52.538;13.266;2023-04-25T14:47:38;11.30;99.90
17687;DHT22;8962;52.538;13.266;2023-04-25T14:50:08;10.90;99.90
17687;DHT22;8962;52.538;13.266;2023-04-25T14:52:35;10.40;99.90
17687;DHT22;8962;52.538;13.266;2023-04-25T14:55:03;10.30;99.90
17687;DHT22;8962;52.538;13.266;2023-04-25T14:57:31;10.30;99.90
17687;DHT22;8962;52.538;13.266;2023-04-25T14:59:58;10.20;99.90
17687;DHT22;8962;52.538;13.266;2023-04-25T15:02:26;10.10;99.90
17687;DHT22;8962;52.538;13.266;2023-04-25T15:04:53;10.00;99.90
17687;DHT22;8962;52.538;13.266;2023-04-25T15:07:23;10.10;99.90
17687;DHT22;8962;52.538;13.266;2023-04-25T15:09:51;10.30;99.90
17687;DHT22;8962;52.538;13.266;2023-04-25T15:12:21;10.30;99.90
17687;DHT22;8962;52.538;13.266;2023-04-25T15:14:48;10.30;99.90
17687;DHT22;8962;52.538;13.266;2023-04-25T15:17:16;10.40;99.90
17687;DHT22;8962;52.538;13.266;2023-04-25T15:19:43;10.60;99.90
17687;DHT22;8962;52.538;13.266;2023-04-25T15:22:11;11.00;99.90
17687;DHT22;8962;52.538;13.266;2023-04-25T15:24:39;11.80;99.90
17687;DHT22;8962;52.538;13.266;2023-04-25T15:27:06;12.30;99.90
17687;DHT22;8962;52.538;13.266;2023-04-25T15:29:34;12.10;99.90
17687;DHT22;8962;52.538;13.266;2023-04-25T15:32:01;11.60;99.90
17687;DHT22;8962;52.538;13.266;2023-04-25T15:34:28;11.10;99.90
17687;DHT22;8962;52.538;13.266;2023-04-25T15:36:56;11.00;99.90
17687;DHT22;8962;52.538;13.266;2023-04-25T15:39:23;11.30;99.90
17687;DHT22;8962;52.538;13.266;2023-04-25T15:41:52;11.50;99.90
17687;DHT22;8962;52.538;13.266;2023-04-25T15:44:19;11.60;99.90
17687;DHT22;8962;52.538;13.266;2023-04-25T15:46:46;11.60;99.90
17687;DHT22;8962;52.538;13.266;2023-04-25T15:49:14;11.40;99.90
17687;DHT22;8962;52.538;13.266;2023-04-25T15:51:41;11.00;99.90
17687;DHT22;8962;52.538;13.266;2023-04-25T15:54:09;10.90;99.90
17687;DHT22;8962;52.538;13.266;2023-04-25T15:56:36;10.70;99.90
17687;DHT22;8962;52.538;13.266;2023-04-25T15:59:05;10.50;99.90
17687;DHT22;8962;52.538;13.266;2023-04-25T16:01:33;10.20;99.90